Zhengzhou, China
Current Conditions -  °F | °C
As of 1:00 AM on Monday 22 Dec 2014 (Local Time) from ZHCC Reporting Station
Clear Clear  
Wind Chill: 27°   Ceiling: Unl
Heat Index: 27°   Visibility: 6mi
Dew Point:   Wind: 2mph
Humidity: 40%   Direction: 210°SSW
Pressure: 30.39"   Gusts: NA
Location:  34.75°N, 113.67°E
Report Text: ZHCC 211700Z 21001MPS CAVOK M03/M15 Q1029 NOSIG
Loading
Personal Weather Stations






























Interactive Weather Map New forecast layout! Learn more

10-Day Weather Forecast

Advertisements
Track Severe Weather on mobile